sensor_id;sensor_type;location;lat;lon;timestamp;P1;durP1;ratioP1;P2;durP2;ratioP2
57321;SDS011;43159;51.006;18.224;2022-10-16T00:03:01;17.50;;;8.10;;
57321;SDS011;43159;51.006;18.224;2022-10-16T00:12:43;14.90;;;8.90;;
57321;SDS011;43159;51.006;18.224;2022-10-16T00:22:26;14.10;;;7.90;;
57321;SDS011;43159;51.006;18.224;2022-10-16T00:32:08;19.70;;;9.00;;
57321;SDS011;43159;51.006;18.224;2022-10-16T00:49:26;30.20;;;9.40;;
57321;SDS011;43159;51.006;18.224;2022-10-16T00:59:15;23.10;;;12.10;;
57321;SDS011;43159;51.006;18.224;2022-10-16T01:09:11;26.30;;;13.30;;
57321;SDS011;43159;51.006;18.224;2022-10-16T01:30:07;29.10;;;14.40;;
57321;SDS011;43159;51.006;18.224;2022-10-16T01:39:55;17.00;;;10.60;;
57321;SDS011;43159;51.006;18.224;2022-10-16T01:57:00;19.90;;;9.10;;
57321;SDS011;43159;51.006;18.224;2022-10-16T02:06:55;28.20;;;14.50;;
57321;SDS011;43159;51.006;18.224;2022-10-16T02:26:28;30.80;;;16.30;;
57321;SDS011;43159;51.006;18.224;2022-10-16T02:36:18;16.30;;;9.40;;
57321;SDS011;43159;51.006;18.224;2022-10-16T02:46:00;25.00;;;15.20;;
57321;SDS011;43159;51.006;18.224;2022-10-16T02:55:42;27.00;;;12.10;;
57321;SDS011;43159;51.006;18.224;2022-10-16T03:12:40;24.90;;;11.30;;
57321;SDS011;43159;51.006;18.224;2022-10-16T03:33:58;18.90;;;9.90;;
57321;SDS011;43159;51.006;18.224;2022-10-16T03:43:40;19.00;;;8.70;;
57321;SDS011;43159;51.006;18.224;2022-10-16T03:53:22;18.50;;;10.00;;
57321;SDS011;43159;51.006;18.224;2022-10-16T04:03:09;20.20;;;9.30;;
57321;SDS011;43159;51.006;18.224;2022-10-16T04:12:52;18.40;;;8.90;;
57321;SDS011;43159;51.006;18.224;2022-10-16T04:22:35;16.80;;;9.00;;
57321;SDS011;43159;51.006;18.224;2022-10-16T04:32:19;18.30;;;10.60;;
57321;SDS011;43159;51.006;18.224;2022-10-16T04:42:01;18.80;;;10.20;;
57321;SDS011;43159;51.006;18.224;2022-10-16T04:51:44;20.30;;;12.20;;
57321;SDS011;43159;51.006;18.224;2022-10-16T05:01:34;19.50;;;10.10;;
57321;SDS011;43159;51.006;18.224;2022-10-16T05:11:16;18.40;;;11.50;;
57321;SDS011;43159;51.006;18.224;2022-10-16T05:20:58;22.70;;;13.30;;
57321;SDS011;43159;51.006;18.224;2022-10-16T05:30:44;22.80;;;12.80;;
57321;SDS011;43159;51.006;18.224;2022-10-16T05:40:26;24.00;;;12.00;;
57321;SDS011;43159;51.006;18.224;2022-10-16T05:50:10;26.40;;;13.00;;
57321;SDS011;43159;51.006;18.224;2022-10-16T05:59:52;23.40;;;12.50;;
57321;SDS011;43159;51.006;18.224;2022-10-16T06:09:33;26.80;;;15.30;;
57321;SDS011;43159;51.006;18.224;2022-10-16T06:26:32;24.70;;;13.60;;
57321;SDS011;43159;51.006;18.224;2022-10-16T06:36:18;23.20;;;11.20;;
57321;SDS011;43159;51.006;18.224;2022-10-16T06:46:04;25.50;;;14.80;;
57321;SDS011;43159;51.006;18.224;2022-10-16T06:55:49;24.80;;;13.50;;
57321;SDS011;43159;51.006;18.224;2022-10-16T07:05:36;31.20;;;14.60;;
57321;SDS011;43159;51.006;18.224;2022-10-16T07:08:05;27.30;;;17.40;;
57321;SDS011;43159;51.006;18.224;2022-10-16T07:17:49;21.20;;;13.40;;
57321;SDS011;43159;51.006;18.224;2022-10-16T07:27:31;22.30;;;11.70;;
57321;SDS011;43159;51.006;18.224;2022-10-16T07:37:14;19.50;;;13.10;;
57321;SDS011;43159;51.006;18.224;2022-10-16T07:46:57;23.40;;;13.60;;
57321;SDS011;43159;51.006;18.224;2022-10-16T07:56:39;22.80;;;13.00;;
57321;SDS011;43159;51.006;18.224;2022-10-16T08:06:21;17.40;;;7.20;;
57321;SDS011;43159;51.006;18.224;2022-10-16T08:16:06;23.00;;;11.80;;
57321;SDS011;43159;51.006;18.224;2022-10-16T08:25:51;18.80;;;11.70;;
57321;SDS011;43159;51.006;18.224;2022-10-16T08:35:35;24.70;;;11.90;;
57321;SDS011;43159;51.006;18.224;2022-10-16T08:45:51;19.60;;;9.50;;
57321;SDS011;43159;51.006;18.224;2022-10-16T08:55:54;17.40;;;11.20;;
57321;SDS011;43159;51.006;18.224;2022-10-16T09:26:03;17.90;;;10.60;;
57321;SDS011;43159;51.006;18.224;2022-10-16T09:35:50;16.10;;;9.00;;
57321;SDS011;43159;51.006;18.224;2022-10-16T09:45:57;13.90;;;8.40;;
57321;SDS011;43159;51.006;18.224;2022-10-16T09:56:06;17.40;;;9.50;;
57321;SDS011;43159;51.006;18.224;2022-10-16T10:06:20;11.30;;;4.90;;
57321;SDS011;43159;51.006;18.224;2022-10-16T10:16:34;14.20;;;8.20;;
57321;SDS011;43159;51.006;18.224;2022-10-16T10:26:24;18.60;;;9.20;;
57321;SDS011;43159;51.006;18.224;2022-10-16T10:36:36;19.70;;;8.00;;
57321;SDS011;43159;51.006;18.224;2022-10-16T11:16:57;10.00;;;2.90;;
57321;SDS011;43159;51.006;18.224;2022-10-16T11:27:01;13.50;;;7.30;;
57321;SDS011;43159;51.006;18.224;2022-10-16T11:37:20;12.70;;;5.80;;
57321;SDS011;43159;51.006;18.224;2022-10-16T11:47:16;21.60;;;9.00;;
57321;SDS011;43159;51.006;18.224;2022-10-16T11:57:23;14.90;;;8.00;;
57321;SDS011;43159;51.006;18.224;2022-10-16T12:07:32;16.40;;;9.10;;
57321;SDS011;43159;51.006;18.224;2022-10-16T12:17:42;14.40;;;7.60;;
57321;SDS011;43159;51.006;18.224;2022-10-16T12:27:59;10.60;;;4.70;;
57321;SDS011;43159;51.006;18.224;2022-10-16T12:37:46;14.00;;;7.60;;
57321;SDS011;43159;51.006;18.224;2022-10-16T12:47:53;18.10;;;9.30;;
57321;SDS011;43159;51.006;18.224;2022-10-16T13:18:53;13.90;;;7.40;;
57321;SDS011;43159;51.006;18.224;2022-10-16T13:29:09;23.70;;;8.20;;
57321;SDS011;43159;51.006;18.224;2022-10-16T13:39:13;14.90;;;9.50;;
57321;SDS011;43159;51.006;18.224;2022-10-16T13:49:30;14.30;;;8.10;;
57321;SDS011;43159;51.006;18.224;2022-10-16T13:59:24;16.00;;;7.50;;
57321;SDS011;43159;51.006;18.224;2022-10-16T14:09:29;14.10;;;7.90;;
57321;SDS011;43159;51.006;18.224;2022-10-16T14:19:15;13.00;;;7.30;;
57321;SDS011;43159;51.006;18.224;2022-10-16T14:36:50;12.60;;;6.90;;
57321;SDS011;43159;51.006;18.224;2022-10-16T14:46:37;11.70;;;6.80;;
57321;SDS011;43159;51.006;18.224;2022-10-16T14:56:36;19.40;;;10.00;;
57321;SDS011;43159;51.006;18.224;2022-10-16T15:04:15;17.10;;;11.20;;
57321;SDS011;43159;51.006;18.224;2022-10-16T15:13:59;16.40;;;8.80;;
57321;SDS011;43159;51.006;18.224;2022-10-16T15:23:50;17.50;;;9.90;;
57321;SDS011;43159;51.006;18.224;2022-10-16T15:33:35;16.90;;;10.80;;
57321;SDS011;43159;51.006;18.224;2022-10-16T15:43:18;16.30;;;9.90;;
57321;SDS011;43159;51.006;18.224;2022-10-16T15:53:04;19.80;;;12.10;;
57321;SDS011;43159;51.006;18.224;2022-10-16T16:02:50;20.00;;;10.30;;
57321;SDS011;43159;51.006;18.224;2022-10-16T16:12:35;22.30;;;12.90;;
57321;SDS011;43159;51.006;18.224;2022-10-16T16:29:34;19.40;;;11.50;;
57321;SDS011;43159;51.006;18.224;2022-10-16T16:39:17;30.70;;;14.40;;
57321;SDS011;43159;51.006;18.224;2022-10-16T16:49:19;22.40;;;14.30;;
57321;SDS011;43159;51.006;18.224;2022-10-16T16:59:13;14.40;;;6.60;;
57321;SDS011;43159;51.006;18.224;2022-10-16T17:09:12;24.60;;;15.10;;
57321;SDS011;43159;51.006;18.224;2022-10-16T17:19:04;25.80;;;15.20;;
57321;SDS011;43159;51.006;18.224;2022-10-16T17:28:52;24.60;;;16.40;;
57321;SDS011;43159;51.006;18.224;2022-10-16T17:38:42;21.40;;;15.20;;
57321;SDS011;43159;51.006;18.224;2022-10-16T17:48:36;27.80;;;14.10;;
57321;SDS011;43159;51.006;18.224;2022-10-16T17:58:23;40.90;;;27.20;;
57321;SDS011;43159;51.006;18.224;2022-10-16T18:08:05;34.70;;;23.20;;
57321;SDS011;43159;51.006;18.224;2022-10-16T18:17:49;29.00;;;18.70;;
57321;SDS011;43159;51.006;18.224;2022-10-16T18:27:32;31.30;;;16.80;;
57321;SDS011;43159;51.006;18.224;2022-10-16T18:37:19;27.20;;;15.40;;
57321;SDS011;43159;51.006;18.224;2022-10-16T18:47:06;20.80;;;12.30;;
57321;SDS011;43159;51.006;18.224;2022-10-16T18:56:54;25.30;;;16.10;;
57321;SDS011;43159;51.006;18.224;2022-10-16T19:06:49;19.30;;;11.90;;
57321;SDS011;43159;51.006;18.224;2022-10-16T19:16:45;25.80;;;16.50;;
57321;SDS011;43159;51.006;18.224;2022-10-16T19:26:46;29.70;;;19.70;;
57321;SDS011;43159;51.006;18.224;2022-10-16T19:36:38;22.70;;;11.80;;
57321;SDS011;43159;51.006;18.224;2022-10-16T19:54:21;27.70;;;15.60;;
57321;SDS011;43159;51.006;18.224;2022-10-16T20:04:08;21.90;;;12.60;;
57321;SDS011;43159;51.006;18.224;2022-10-16T20:13:53;26.00;;;13.70;;
57321;SDS011;43159;51.006;18.224;2022-10-16T20:23:38;26.20;;;14.30;;
57321;SDS011;43159;51.006;18.224;2022-10-16T20:33:21;30.00;;;16.90;;
57321;SDS011;43159;51.006;18.224;2022-10-16T20:43:04;28.90;;;15.80;;
57321;SDS011;43159;51.006;18.224;2022-10-16T21:07:19;23.90;;;12.50;;
57321;SDS011;43159;51.006;18.224;2022-10-16T21:17:02;28.90;;;14.60;;
57321;SDS011;43159;51.006;18.224;2022-10-16T21:26:44;26.10;;;15.30;;
57321;SDS011;43159;51.006;18.224;2022-10-16T21:36:30;23.10;;;11.70;;
57321;SDS011;43159;51.006;18.224;2022-10-16T21:46:18;21.70;;;11.70;;
57321;SDS011;43159;51.006;18.224;2022-10-16T21:56:02;30.60;;;16.70;;
57321;SDS011;43159;51.006;18.224;2022-10-16T22:05:49;28.60;;;14.50;;
57321;SDS011;43159;51.006;18.224;2022-10-16T22:15:31;15.80;;;8.50;;
57321;SDS011;43159;51.006;18.224;2022-10-16T22:25:13;28.60;;;17.00;;
57321;SDS011;43159;51.006;18.224;2022-10-16T22:34:55;31.60;;;17.00;;
57321;SDS011;43159;51.006;18.224;2022-10-16T22:44:37;30.10;;;17.40;;
57321;SDS011;43159;51.006;18.224;2022-10-16T22:54:19;40.10;;;17.90;;
57321;SDS011;43159;51.006;18.224;2022-10-16T23:04:02;24.20;;;16.80;;
57321;SDS011;43159;51.006;18.224;2022-10-16T23:13:45;30.80;;;16.00;;
57321;SDS011;43159;51.006;18.224;2022-10-16T23:23:29;18.30;;;9.40;;
57321;SDS011;43159;51.006;18.224;2022-10-16T23:33:11;27.50;;;17.20;;
57321;SDS011;43159;51.006;18.224;2022-10-16T23:42:54;31.70;;;18.00;;
57321;SDS011;43159;51.006;18.224;2022-10-16T23:52:35;28.80;;;15.90;;
